sensor_id;sensor_type;location;lat;lon;timestamp;P1;durP1;ratioP1;P2;durP2;ratioP2
20511;SDS011;10414;52.074;5.126;2023-05-17T00:02:23;15.68;;;3.53;;
20511;SDS011;10414;52.074;5.126;2023-05-17T00:04:50;20.48;;;3.95;;
20511;SDS011;10414;52.074;5.126;2023-05-17T00:07:18;18.45;;;4.15;;
20511;SDS011;10414;52.074;5.126;2023-05-17T00:09:44;19.88;;;4.18;;
20511;SDS011;10414;52.074;5.126;2023-05-17T00:12:14;15.90;;;4.20;;
20511;SDS011;10414;52.074;5.126;2023-05-17T00:14:41;18.33;;;3.72;;
20511;SDS011;10414;52.074;5.126;2023-05-17T00:17:08;18.00;;;4.00;;
20511;SDS011;10414;52.074;5.126;2023-05-17T00:19:35;13.63;;;3.75;;
20511;SDS011;10414;52.074;5.126;2023-05-17T00:22:02;12.23;;;3.70;;
20511;SDS011;10414;52.074;5.126;2023-05-17T00:24:29;14.48;;;3.92;;
20511;SDS011;10414;52.074;5.126;2023-05-17T00:26:56;12.50;;;3.97;;
20511;SDS011;10414;52.074;5.126;2023-05-17T00:29:24;9.15;;;3.40;;
20511;SDS011;10414;52.074;5.126;2023-05-17T00:31:51;22.40;;;4.00;;
20511;SDS011;10414;52.074;5.126;2023-05-17T00:34:18;17.05;;;4.25;;
20511;SDS011;10414;52.074;5.126;2023-05-17T00:36:45;17.30;;;3.97;;
20511;SDS011;10414;52.074;5.126;2023-05-17T00:39:13;14.65;;;3.50;;
20511;SDS011;10414;52.074;5.126;2023-05-17T00:41:40;12.43;;;3.70;;
20511;SDS011;10414;52.074;5.126;2023-05-17T00:44:07;12.80;;;3.88;;
20511;SDS011;10414;52.074;5.126;2023-05-17T00:46:35;18.60;;;4.28;;
20511;SDS011;10414;52.074;5.126;2023-05-17T00:49:02;21.80;;;4.00;;
20511;SDS011;10414;52.074;5.126;2023-05-17T00:51:31;14.50;;;3.60;;
20511;SDS011;10414;52.074;5.126;2023-05-17T00:53:59;17.10;;;4.35;;
20511;SDS011;10414;52.074;5.126;2023-05-17T00:56:26;12.88;;;3.80;;
20511;SDS011;10414;52.074;5.126;2023-05-17T00:58:53;16.98;;;4.82;;
20511;SDS011;10414;52.074;5.126;2023-05-17T01:01:20;19.95;;;4.60;;
20511;SDS011;10414;52.074;5.126;2023-05-17T01:03:51;18.00;;;4.13;;
20511;SDS011;10414;52.074;5.126;2023-05-17T01:06:18;13.07;;;4.22;;
20511;SDS011;10414;52.074;5.126;2023-05-17T01:08:46;17.85;;;4.05;;
20511;SDS011;10414;52.074;5.126;2023-05-17T01:11:17;18.73;;;4.03;;
20511;SDS011;10414;52.074;5.126;2023-05-17T01:13:57;14.63;;;4.10;;
20511;SDS011;10414;52.074;5.126;2023-05-17T01:16:35;17.20;;;3.95;;
20511;SDS011;10414;52.074;5.126;2023-05-17T01:19:09;16.38;;;3.47;;
20511;SDS011;10414;52.074;5.126;2023-05-17T01:21:49;19.75;;;3.92;;
20511;SDS011;10414;52.074;5.126;2023-05-17T01:24:24;17.67;;;4.00;;
20511;SDS011;10414;52.074;5.126;2023-05-17T01:26:55;15.00;;;3.72;;
20511;SDS011;10414;52.074;5.126;2023-05-17T01:29:25;16.38;;;5.00;;
20511;SDS011;10414;52.074;5.126;2023-05-17T01:31:55;15.70;;;3.78;;
20511;SDS011;10414;52.074;5.126;2023-05-17T01:34:25;14.38;;;3.75;;
20511;SDS011;10414;52.074;5.126;2023-05-17T01:39:20;17.98;;;4.55;;
20511;SDS011;10414;52.074;5.126;2023-05-17T01:41:50;16.85;;;4.43;;
20511;SDS011;10414;52.074;5.126;2023-05-17T01:44:25;15.93;;;4.30;;
20511;SDS011;10414;52.074;5.126;2023-05-17T01:46:59;17.02;;;4.47;;
20511;SDS011;10414;52.074;5.126;2023-05-17T01:49:36;20.35;;;4.82;;
20511;SDS011;10414;52.074;5.126;2023-05-17T01:52:06;17.67;;;4.55;;
20511;SDS011;10414;52.074;5.126;2023-05-17T01:54:42;15.15;;;4.40;;
20511;SDS011;10414;52.074;5.126;2023-05-17T01:57:16;14.23;;;4.32;;
20511;SDS011;10414;52.074;5.126;2023-05-17T01:59:50;14.68;;;4.10;;
20511;SDS011;10414;52.074;5.126;2023-05-17T02:02:17;17.33;;;4.57;;
20511;SDS011;10414;52.074;5.126;2023-05-17T02:04:46;15.18;;;4.57;;
20511;SDS011;10414;52.074;5.126;2023-05-17T02:07:15;17.48;;;4.95;;
20511;SDS011;10414;52.074;5.126;2023-05-17T02:09:42;20.35;;;4.40;;
20511;SDS011;10414;52.074;5.126;2023-05-17T02:12:10;15.57;;;4.13;;
20511;SDS011;10414;52.074;5.126;2023-05-17T02:14:41;12.93;;;3.78;;
20511;SDS011;10414;52.074;5.126;2023-05-17T02:17:11;18.98;;;4.47;;
20511;SDS011;10414;52.074;5.126;2023-05-17T02:19:38;14.88;;;3.88;;
20511;SDS011;10414;52.074;5.126;2023-05-17T02:22:07;17.60;;;3.85;;
20511;SDS011;10414;52.074;5.126;2023-05-17T02:24:34;17.92;;;3.67;;
20511;SDS011;10414;52.074;5.126;2023-05-17T02:27:01;20.88;;;5.07;;
20511;SDS011;10414;52.074;5.126;2023-05-17T02:29:31;11.63;;;4.10;;
20511;SDS011;10414;52.074;5.126;2023-05-17T02:31:59;23.52;;;4.70;;
20511;SDS011;10414;52.074;5.126;2023-05-17T02:34:26;16.05;;;4.45;;
20511;SDS011;10414;52.074;5.126;2023-05-17T02:36:53;16.10;;;4.63;;
20511;SDS011;10414;52.074;5.126;2023-05-17T02:39:19;14.23;;;4.38;;
20511;SDS011;10414;52.074;5.126;2023-05-17T02:41:46;15.80;;;3.88;;
20511;SDS011;10414;52.074;5.126;2023-05-17T02:44:13;15.43;;;4.13;;
20511;SDS011;10414;52.074;5.126;2023-05-17T02:46:40;17.77;;;5.13;;
20511;SDS011;10414;52.074;5.126;2023-05-17T02:49:08;16.30;;;4.20;;
20511;SDS011;10414;52.074;5.126;2023-05-17T02:51:35;17.35;;;4.57;;
20511;SDS011;10414;52.074;5.126;2023-05-17T02:54:01;16.92;;;3.80;;
20511;SDS011;10414;52.074;5.126;2023-05-17T02:56:28;11.68;;;4.18;;
20511;SDS011;10414;52.074;5.126;2023-05-17T02:58:55;14.60;;;5.32;;
20511;SDS011;10414;52.074;5.126;2023-05-17T03:01:25;21.77;;;4.57;;
20511;SDS011;10414;52.074;5.126;2023-05-17T03:03:52;18.88;;;4.57;;
20511;SDS011;10414;52.074;5.126;2023-05-17T03:06:20;13.88;;;4.15;;
20511;SDS011;10414;52.074;5.126;2023-05-17T03:08:47;23.17;;;4.93;;
20511;SDS011;10414;52.074;5.126;2023-05-17T03:11:14;16.88;;;4.05;;
20511;SDS011;10414;52.074;5.126;2023-05-17T03:13:41;16.40;;;4.72;;
20511;SDS011;10414;52.074;5.126;2023-05-17T03:16:10;16.48;;;4.43;;
20511;SDS011;10414;52.074;5.126;2023-05-17T03:18:39;16.42;;;4.80;;
20511;SDS011;10414;52.074;5.126;2023-05-17T03:21:06;15.55;;;4.95;;
20511;SDS011;10414;52.074;5.126;2023-05-17T03:23:34;18.08;;;4.68;;
20511;SDS011;10414;52.074;5.126;2023-05-17T03:26:01;17.33;;;4.45;;
20511;SDS011;10414;52.074;5.126;2023-05-17T03:28:28;20.42;;;4.82;;
20511;SDS011;10414;52.074;5.126;2023-05-17T03:30:59;18.30;;;5.28;;
20511;SDS011;10414;52.074;5.126;2023-05-17T03:33:26;14.85;;;4.82;;
20511;SDS011;10414;52.074;5.126;2023-05-17T03:35:55;12.05;;;4.05;;
20511;SDS011;10414;52.074;5.126;2023-05-17T03:38:22;20.48;;;4.97;;
20511;SDS011;10414;52.074;5.126;2023-05-17T03:40:54;15.93;;;4.38;;
20511;SDS011;10414;52.074;5.126;2023-05-17T03:43:26;23.05;;;5.30;;
20511;SDS011;10414;52.074;5.126;2023-05-17T03:45:53;18.92;;;4.95;;
20511;SDS011;10414;52.074;5.126;2023-05-17T03:48:20;16.00;;;4.50;;
20511;SDS011;10414;52.074;5.126;2023-05-17T03:50:49;14.73;;;4.00;;
20511;SDS011;10414;52.074;5.126;2023-05-17T03:53:21;19.10;;;4.28;;
20511;SDS011;10414;52.074;5.126;2023-05-17T03:55:47;22.55;;;4.10;;
20511;SDS011;10414;52.074;5.126;2023-05-17T03:58:16;20.88;;;3.20;;
20511;SDS011;10414;52.074;5.126;2023-05-17T04:00:43;19.63;;;3.08;;
20511;SDS011;10414;52.074;5.126;2023-05-17T04:03:09;9.45;;;2.63;;
20511;SDS011;10414;52.074;5.126;2023-05-17T04:05:37;12.25;;;3.42;;
20511;SDS011;10414;52.074;5.126;2023-05-17T04:08:05;16.02;;;3.30;;
20511;SDS011;10414;52.074;5.126;2023-05-17T04:10:31;15.98;;;3.10;;
20511;SDS011;10414;52.074;5.126;2023-05-17T04:12:58;15.52;;;2.97;;
20511;SDS011;10414;52.074;5.126;2023-05-17T04:15:26;17.02;;;2.70;;
20511;SDS011;10414;52.074;5.126;2023-05-17T04:17:53;16.27;;;2.97;;
20511;SDS011;10414;52.074;5.126;2023-05-17T04:20:20;23.00;;;3.15;;
20511;SDS011;10414;52.074;5.126;2023-05-17T04:22:49;11.75;;;2.67;;
20511;SDS011;10414;52.074;5.126;2023-05-17T04:25:16;16.05;;;2.47;;
20511;SDS011;10414;52.074;5.126;2023-05-17T04:27:43;13.50;;;2.65;;
20511;SDS011;10414;52.074;5.126;2023-05-17T04:30:11;20.73;;;3.20;;
20511;SDS011;10414;52.074;5.126;2023-05-17T04:32:40;13.43;;;2.53;;
20511;SDS011;10414;52.074;5.126;2023-05-17T04:35:07;13.55;;;2.45;;
20511;SDS011;10414;52.074;5.126;2023-05-17T04:37:35;18.95;;;2.75;;
20511;SDS011;10414;52.074;5.126;2023-05-17T04:40:06;15.88;;;2.70;;
20511;SDS011;10414;52.074;5.126;2023-05-17T04:42:35;15.55;;;2.28;;
20511;SDS011;10414;52.074;5.126;2023-05-17T04:45:01;10.68;;;1.85;;
20511;SDS011;10414;52.074;5.126;2023-05-17T04:47:29;14.52;;;2.58;;
20511;SDS011;10414;52.074;5.126;2023-05-17T04:49:57;19.30;;;2.60;;
20511;SDS011;10414;52.074;5.126;2023-05-17T04:52:24;13.68;;;2.40;;
20511;SDS011;10414;52.074;5.126;2023-05-17T04:54:51;11.70;;;2.33;;
20511;SDS011;10414;52.074;5.126;2023-05-17T04:57:17;14.82;;;2.00;;
20511;SDS011;10414;52.074;5.126;2023-05-17T04:59:45;15.77;;;2.22;;
20511;SDS011;10414;52.074;5.126;2023-05-17T05:02:12;12.20;;;2.08;;
20511;SDS011;10414;52.074;5.126;2023-05-17T05:04:39;13.63;;;2.58;;
20511;SDS011;10414;52.074;5.126;2023-05-17T05:07:07;12.93;;;2.25;;
20511;SDS011;10414;52.074;5.126;2023-05-17T05:09:34;15.45;;;2.67;;
20511;SDS011;10414;52.074;5.126;2023-05-17T05:12:01;11.30;;;1.92;;
20511;SDS011;10414;52.074;5.126;2023-05-17T05:14:27;15.48;;;2.42;;
20511;SDS011;10414;52.074;5.126;2023-05-17T05:16:56;13.95;;;2.35;;
20511;SDS011;10414;52.074;5.126;2023-05-17T05:19:23;11.82;;;2.28;;
20511;SDS011;10414;52.074;5.126;2023-05-17T05:21:50;11.63;;;2.40;;
20511;SDS011;10414;52.074;5.126;2023-05-17T05:24:18;14.25;;;2.42;;
20511;SDS011;10414;52.074;5.126;2023-05-17T05:26:45;12.02;;;2.38;;
20511;SDS011;10414;52.074;5.126;2023-05-17T05:29:12;11.05;;;2.25;;
20511;SDS011;10414;52.074;5.126;2023-05-17T05:31:41;13.05;;;2.13;;
20511;SDS011;10414;52.074;5.126;2023-05-17T05:34:08;13.80;;;2.30;;
20511;SDS011;10414;52.074;5.126;2023-05-17T05:36:35;15.60;;;3.00;;
20511;SDS011;10414;52.074;5.126;2023-05-17T05:39:02;13.10;;;2.20;;
20511;SDS011;10414;52.074;5.126;2023-05-17T05:41:30;14.65;;;2.28;;
20511;SDS011;10414;52.074;5.126;2023-05-17T05:43:57;11.38;;;2.20;;
20511;SDS011;10414;52.074;5.126;2023-05-17T05:46:25;9.70;;;2.10;;
20511;SDS011;10414;52.074;5.126;2023-05-17T05:48:54;9.40;;;2.10;;
20511;SDS011;10414;52.074;5.126;2023-05-17T05:51:21;13.23;;;2.38;;
20511;SDS011;10414;52.074;5.126;2023-05-17T05:53:48;14.35;;;2.80;;
20511;SDS011;10414;52.074;5.126;2023-05-17T05:56:15;11.48;;;2.35;;
20511;SDS011;10414;52.074;5.126;2023-05-17T05:58:43;12.13;;;2.35;;
20511;SDS011;10414;52.074;5.126;2023-05-17T06:01:10;12.80;;;2.60;;
20511;SDS011;10414;52.074;5.126;2023-05-17T06:03:39;11.75;;;2.33;;
20511;SDS011;10414;52.074;5.126;2023-05-17T06:06:08;11.95;;;2.20;;
20511;SDS011;10414;52.074;5.126;2023-05-17T06:08:35;10.27;;;2.40;;
20511;SDS011;10414;52.074;5.126;2023-05-17T06:11:02;13.40;;;2.20;;
20511;SDS011;10414;52.074;5.126;2023-05-17T06:13:30;11.55;;;1.90;;
20511;SDS011;10414;52.074;5.126;2023-05-17T06:15:59;10.95;;;2.17;;
20511;SDS011;10414;52.074;5.126;2023-05-17T06:18:25;12.02;;;1.90;;
20511;SDS011;10414;52.074;5.126;2023-05-17T06:20:52;12.27;;;2.20;;
20511;SDS011;10414;52.074;5.126;2023-05-17T06:23:19;8.00;;;1.60;;
20511;SDS011;10414;52.074;5.126;2023-05-17T06:25:46;9.38;;;1.67;;
20511;SDS011;10414;52.074;5.126;2023-05-17T06:28:13;11.70;;;1.63;;
20511;SDS011;10414;52.074;5.126;2023-05-17T06:30:40;11.43;;;1.83;;
20511;SDS011;10414;52.074;5.126;2023-05-17T06:33:08;10.85;;;2.08;;
20511;SDS011;10414;52.074;5.126;2023-05-17T06:35:35;13.43;;;1.90;;
20511;SDS011;10414;52.074;5.126;2023-05-17T06:38:02;10.75;;;1.67;;
20511;SDS011;10414;52.074;5.126;2023-05-17T06:40:29;7.05;;;1.50;;
20511;SDS011;10414;52.074;5.126;2023-05-17T06:42:56;13.07;;;2.40;;
20511;SDS011;10414;52.074;5.126;2023-05-17T06:45:26;10.90;;;1.80;;
20511;SDS011;10414;52.074;5.126;2023-05-17T06:48:04;9.88;;;1.60;;
20511;SDS011;10414;52.074;5.126;2023-05-17T06:50:34;8.88;;;1.55;;
20511;SDS011;10414;52.074;5.126;2023-05-17T06:53:02;8.75;;;1.65;;
20511;SDS011;10414;52.074;5.126;2023-05-17T06:55:33;11.52;;;1.70;;
20511;SDS011;10414;52.074;5.126;2023-05-17T06:58:00;13.38;;;1.70;;
20511;SDS011;10414;52.074;5.126;2023-05-17T07:00:27;7.60;;;1.77;;
20511;SDS011;10414;52.074;5.126;2023-05-17T07:02:53;7.57;;;1.50;;
20511;SDS011;10414;52.074;5.126;2023-05-17T07:05:24;9.02;;;1.70;;
20511;SDS011;10414;52.074;5.126;2023-05-17T07:07:55;9.32;;;1.67;;
20511;SDS011;10414;52.074;5.126;2023-05-17T07:10:22;8.20;;;1.50;;
20511;SDS011;10414;52.074;5.126;2023-05-17T07:12:51;10.10;;;1.60;;
20511;SDS011;10414;52.074;5.126;2023-05-17T07:15:18;10.65;;;1.60;;
20511;SDS011;10414;52.074;5.126;2023-05-17T07:17:45;8.02;;;1.33;;
20511;SDS011;10414;52.074;5.126;2023-05-17T07:20:12;9.15;;;1.65;;
20511;SDS011;10414;52.074;5.126;2023-05-17T07:22:39;13.88;;;1.95;;
20511;SDS011;10414;52.074;5.126;2023-05-17T07:25:08;7.72;;;1.30;;
20511;SDS011;10414;52.074;5.126;2023-05-17T07:27:35;9.70;;;1.67;;
20511;SDS011;10414;52.074;5.126;2023-05-17T07:30:02;6.00;;;1.27;;
20511;SDS011;10414;52.074;5.126;2023-05-17T07:32:30;11.95;;;1.60;;
20511;SDS011;10414;52.074;5.126;2023-05-17T07:34:57;8.73;;;1.35;;
20511;SDS011;10414;52.074;5.126;2023-05-17T07:37:23;7.72;;;1.60;;
20511;SDS011;10414;52.074;5.126;2023-05-17T07:39:52;8.82;;;1.50;;
20511;SDS011;10414;52.074;5.126;2023-05-17T07:42:20;7.63;;;1.02;;
20511;SDS011;10414;52.074;5.126;2023-05-17T07:44:47;7.15;;;1.30;;
20511;SDS011;10414;52.074;5.126;2023-05-17T07:47:17;10.80;;;1.40;;
20511;SDS011;10414;52.074;5.126;2023-05-17T07:49:44;10.32;;;1.60;;
20511;SDS011;10414;52.074;5.126;2023-05-17T07:52:12;7.20;;;1.70;;
20511;SDS011;10414;52.074;5.126;2023-05-17T07:54:42;8.82;;;1.75;;
20511;SDS011;10414;52.074;5.126;2023-05-17T07:57:09;4.93;;;1.00;;
20511;SDS011;10414;52.074;5.126;2023-05-17T07:59:37;7.45;;;1.30;;
20511;SDS011;10414;52.074;5.126;2023-05-17T08:02:04;8.80;;;1.63;;
20511;SDS011;10414;52.074;5.126;2023-05-17T08:04:31;9.35;;;1.55;;
20511;SDS011;10414;52.074;5.126;2023-05-17T08:07:00;8.20;;;1.73;;
20511;SDS011;10414;52.074;5.126;2023-05-17T08:09:27;7.95;;;1.60;;
20511;SDS011;10414;52.074;5.126;2023-05-17T08:11:54;5.72;;;1.20;;
20511;SDS011;10414;52.074;5.126;2023-05-17T08:14:22;6.25;;;1.33;;
20511;SDS011;10414;52.074;5.126;2023-05-17T08:16:51;7.57;;;1.63;;
20511;SDS011;10414;52.074;5.126;2023-05-17T08:19:18;6.43;;;1.27;;
20511;SDS011;10414;52.074;5.126;2023-05-17T08:21:50;7.57;;;1.38;;
20511;SDS011;10414;52.074;5.126;2023-05-17T08:24:17;7.20;;;1.30;;
20511;SDS011;10414;52.074;5.126;2023-05-17T08:26:44;6.50;;;1.00;;
20511;SDS011;10414;52.074;5.126;2023-05-17T08:29:10;8.88;;;1.40;;
20511;SDS011;10414;52.074;5.126;2023-05-17T08:31:37;7.10;;;1.38;;
20511;SDS011;10414;52.074;5.126;2023-05-17T08:34:05;5.03;;;1.30;;
20511;SDS011;10414;52.074;5.126;2023-05-17T08:36:32;6.95;;;1.50;;
20511;SDS011;10414;52.074;5.126;2023-05-17T08:38:59;10.65;;;2.00;;
20511;SDS011;10414;52.074;5.126;2023-05-17T08:41:35;7.47;;;1.40;;
20511;SDS011;10414;52.074;5.126;2023-05-17T08:44:02;5.07;;;1.42;;
20511;SDS011;10414;52.074;5.126;2023-05-17T08:46:31;7.55;;;1.30;;
20511;SDS011;10414;52.074;5.126;2023-05-17T08:48:58;5.03;;;0.95;;
20511;SDS011;10414;52.074;5.126;2023-05-17T08:51:29;8.30;;;1.60;;
20511;SDS011;10414;52.074;5.126;2023-05-17T08:53:57;6.28;;;1.23;;
20511;SDS011;10414;52.074;5.126;2023-05-17T08:56:29;5.80;;;1.02;;
20511;SDS011;10414;52.074;5.126;2023-05-17T08:58:57;8.88;;;1.58;;
20511;SDS011;10414;52.074;5.126;2023-05-17T09:01:24;7.57;;;1.48;;
20511;SDS011;10414;52.074;5.126;2023-05-17T09:03:52;7.70;;;1.60;;
20511;SDS011;10414;52.074;5.126;2023-05-17T09:06:19;6.00;;;1.20;;
20511;SDS011;10414;52.074;5.126;2023-05-17T09:08:49;6.75;;;1.58;;
20511;SDS011;10414;52.074;5.126;2023-05-17T09:11:23;5.60;;;1.20;;
20511;SDS011;10414;52.074;5.126;2023-05-17T09:13:51;5.93;;;1.35;;
20511;SDS011;10414;52.074;5.126;2023-05-17T09:16:21;6.05;;;1.33;;
20511;SDS011;10414;52.074;5.126;2023-05-17T09:18:52;6.97;;;1.50;;
20511;SDS011;10414;52.074;5.126;2023-05-17T09:21:20;5.35;;;1.15;;
20511;SDS011;10414;52.074;5.126;2023-05-17T09:23:47;7.45;;;1.20;;
20511;SDS011;10414;52.074;5.126;2023-05-17T09:26:16;7.07;;;1.10;;
20511;SDS011;10414;52.074;5.126;2023-05-17T09:28:46;7.75;;;1.08;;
20511;SDS011;10414;52.074;5.126;2023-05-17T09:31:14;6.65;;;1.10;;
20511;SDS011;10414;52.074;5.126;2023-05-17T09:33:42;8.15;;;1.30;;
20511;SDS011;10414;52.074;5.126;2023-05-17T09:36:20;6.95;;;1.33;;
20511;SDS011;10414;52.074;5.126;2023-05-17T09:38:53;6.68;;;1.25;;
20511;SDS011;10414;52.074;5.126;2023-05-17T09:41:20;8.75;;;1.17;;
20511;SDS011;10414;52.074;5.126;2023-05-17T09:43:53;6.65;;;1.63;;
20511;SDS011;10414;52.074;5.126;2023-05-17T09:46:24;7.07;;;1.50;;
20511;SDS011;10414;52.074;5.126;2023-05-17T09:48:53;8.82;;;1.40;;
20511;SDS011;10414;52.074;5.126;2023-05-17T09:51:30;7.57;;;1.30;;
20511;SDS011;10414;52.074;5.126;2023-05-17T09:54:05;7.75;;;1.55;;
20511;SDS011;10414;52.074;5.126;2023-05-17T09:56:32;7.45;;;1.70;;
20511;SDS011;10414;52.074;5.126;2023-05-17T09:59:00;6.68;;;1.52;;
20511;SDS011;10414;52.074;5.126;2023-05-17T10:01:31;5.43;;;1.20;;
20511;SDS011;10414;52.074;5.126;2023-05-17T10:03:58;7.13;;;1.52;;
20511;SDS011;10414;52.074;5.126;2023-05-17T10:06:28;5.03;;;1.15;;
20511;SDS011;10414;52.074;5.126;2023-05-17T10:08:59;8.18;;;1.33;;
20511;SDS011;10414;52.074;5.126;2023-05-17T10:11:30;7.70;;;1.30;;
20511;SDS011;10414;52.074;5.126;2023-05-17T10:14:03;6.05;;;1.15;;
20511;SDS011;10414;52.074;5.126;2023-05-17T10:16:35;4.70;;;1.15;;
20511;SDS011;10414;52.074;5.126;2023-05-17T10:19:03;9.88;;;1.30;;
20511;SDS011;10414;52.074;5.126;2023-05-17T10:21:30;3.90;;;1.20;;
20511;SDS011;10414;52.074;5.126;2023-05-17T10:23:58;6.10;;;1.25;;
20511;SDS011;10414;52.074;5.126;2023-05-17T10:26:40;5.63;;;1.17;;
20511;SDS011;10414;52.074;5.126;2023-05-17T10:29:07;5.80;;;1.20;;
20511;SDS011;10414;52.074;5.126;2023-05-17T10:31:36;8.07;;;1.15;;
20511;SDS011;10414;52.074;5.126;2023-05-17T10:34:03;6.75;;;1.20;;
20511;SDS011;10414;52.074;5.126;2023-05-17T10:36:31;4.30;;;1.05;;
20511;SDS011;10414;52.074;5.126;2023-05-17T10:39:04;9.65;;;1.30;;
20511;SDS011;10414;52.074;5.126;2023-05-17T10:41:35;8.10;;;1.73;;
20511;SDS011;10414;52.074;5.126;2023-05-17T10:44:06;6.90;;;1.15;;
20511;SDS011;10414;52.074;5.126;2023-05-17T10:46:37;7.43;;;1.17;;
20511;SDS011;10414;52.074;5.126;2023-05-17T10:49:04;6.20;;;1.20;;
20511;SDS011;10414;52.074;5.126;2023-05-17T10:51:32;9.18;;;1.30;;
20511;SDS011;10414;52.074;5.126;2023-05-17T10:54:06;7.78;;;1.20;;
20511;SDS011;10414;52.074;5.126;2023-05-17T10:56:34;5.82;;;1.40;;
20511;SDS011;10414;52.074;5.126;2023-05-17T10:59:14;7.82;;;1.50;;
20511;SDS011;10414;52.074;5.126;2023-05-17T11:01:52;6.47;;;1.42;;
20511;SDS011;10414;52.074;5.126;2023-05-17T11:06:50;8.70;;;1.60;;
20511;SDS011;10414;52.074;5.126;2023-05-17T11:09:20;5.80;;;1.20;;
20511;SDS011;10414;52.074;5.126;2023-05-17T11:17:23;10.17;;;1.90;;
20511;SDS011;10414;52.074;5.126;2023-05-17T11:19:54;7.13;;;1.40;;
20511;SDS011;10414;52.074;5.126;2023-05-17T11:22:26;8.75;;;1.40;;
20511;SDS011;10414;52.074;5.126;2023-05-17T11:24:55;9.60;;;1.50;;
20511;SDS011;10414;52.074;5.126;2023-05-17T11:27:22;7.90;;;1.33;;
20511;SDS011;10414;52.074;5.126;2023-05-17T11:29:53;6.55;;;1.20;;
20511;SDS011;10414;52.074;5.126;2023-05-17T11:32:25;5.70;;;1.15;;
20511;SDS011;10414;52.074;5.126;2023-05-17T11:34:54;5.78;;;1.23;;
20511;SDS011;10414;52.074;5.126;2023-05-17T11:37:24;6.90;;;1.50;;
20511;SDS011;10414;52.074;5.126;2023-05-17T11:40:01;7.78;;;1.40;;
20511;SDS011;10414;52.074;5.126;2023-05-17T11:42:30;6.72;;;1.30;;
20511;SDS011;10414;52.074;5.126;2023-05-17T11:44:59;5.90;;;1.30;;
20511;SDS011;10414;52.074;5.126;2023-05-17T11:47:27;6.82;;;1.40;;
20511;SDS011;10414;52.074;5.126;2023-05-17T11:49:55;5.53;;;1.27;;
20511;SDS011;10414;52.074;5.126;2023-05-17T11:52:26;8.60;;;1.33;;
20511;SDS011;10414;52.074;5.126;2023-05-17T11:54:53;9.55;;;1.70;;
20511;SDS011;10414;52.074;5.126;2023-05-17T11:57:20;6.20;;;1.27;;
20511;SDS011;10414;52.074;5.126;2023-05-17T12:00:00;4.95;;;1.38;;
20511;SDS011;10414;52.074;5.126;2023-05-17T12:02:30;5.80;;;1.23;;
20511;SDS011;10414;52.074;5.126;2023-05-17T12:04:57;7.90;;;1.45;;
20511;SDS011;10414;52.074;5.126;2023-05-17T12:07:26;7.22;;;1.30;;
20511;SDS011;10414;52.074;5.126;2023-05-17T12:09:55;7.97;;;1.30;;
20511;SDS011;10414;52.074;5.126;2023-05-17T12:12:22;8.63;;;1.48;;
20511;SDS011;10414;52.074;5.126;2023-05-17T12:14:50;12.90;;;1.60;;
20511;SDS011;10414;52.074;5.126;2023-05-17T12:17:20;6.72;;;1.50;;
20511;SDS011;10414;52.074;5.126;2023-05-17T12:19:53;9.35;;;1.40;;
20511;SDS011;10414;52.074;5.126;2023-05-17T12:22:31;7.80;;;1.33;;
20511;SDS011;10414;52.074;5.126;2023-05-17T12:24:58;8.32;;;1.40;;
20511;SDS011;10414;52.074;5.126;2023-05-17T12:27:25;8.73;;;1.58;;
20511;SDS011;10414;52.074;5.126;2023-05-17T12:29:52;7.35;;;1.67;;
20511;SDS011;10414;52.074;5.126;2023-05-17T12:32:21;7.97;;;1.58;;
20511;SDS011;10414;52.074;5.126;2023-05-17T12:34:48;7.75;;;1.75;;
20511;SDS011;10414;52.074;5.126;2023-05-17T12:37:16;14.23;;;1.80;;
20511;SDS011;10414;52.074;5.126;2023-05-17T12:39:45;5.30;;;1.30;;
20511;SDS011;10414;52.074;5.126;2023-05-17T12:42:12;9.88;;;1.50;;
20511;SDS011;10414;52.074;5.126;2023-05-17T12:44:40;9.18;;;1.73;;
20511;SDS011;10414;52.074;5.126;2023-05-17T12:47:08;9.88;;;1.70;;
20511;SDS011;10414;52.074;5.126;2023-05-17T12:49:39;8.50;;;1.70;;
20511;SDS011;10414;52.074;5.126;2023-05-17T12:52:21;12.20;;;2.00;;
20511;SDS011;10414;52.074;5.126;2023-05-17T12:54:50;8.98;;;2.10;;
20511;SDS011;10414;52.074;5.126;2023-05-17T12:57:19;10.13;;;1.60;;
20511;SDS011;10414;52.074;5.126;2023-05-17T12:59:46;8.05;;;1.73;;
20511;SDS011;10414;52.074;5.126;2023-05-17T13:02:13;8.07;;;1.70;;
20511;SDS011;10414;52.074;5.126;2023-05-17T13:04:42;9.80;;;2.20;;
20511;SDS011;10414;52.074;5.126;2023-05-17T13:07:10;8.85;;;1.60;;
20511;SDS011;10414;52.074;5.126;2023-05-17T13:09:44;9.32;;;1.77;;
20511;SDS011;10414;52.074;5.126;2023-05-17T13:12:17;10.00;;;1.88;;
20511;SDS011;10414;52.074;5.126;2023-05-17T13:14:45;7.80;;;1.38;;
20511;SDS011;10414;52.074;5.126;2023-05-17T13:19:50;7.93;;;1.67;;
20511;SDS011;10414;52.074;5.126;2023-05-17T13:22:17;7.05;;;1.55;;
20511;SDS011;10414;52.074;5.126;2023-05-17T13:24:44;9.05;;;1.70;;
20511;SDS011;10414;52.074;5.126;2023-05-17T13:27:11;6.32;;;1.58;;
20511;SDS011;10414;52.074;5.126;2023-05-17T13:29:39;8.18;;;1.60;;
20511;SDS011;10414;52.074;5.126;2023-05-17T13:32:07;7.53;;;1.73;;
20511;SDS011;10414;52.074;5.126;2023-05-17T13:34:35;8.05;;;1.73;;
20511;SDS011;10414;52.074;5.126;2023-05-17T13:37:04;10.73;;;1.90;;
20511;SDS011;10414;52.074;5.126;2023-05-17T13:39:31;7.03;;;1.42;;
20511;SDS011;10414;52.074;5.126;2023-05-17T13:41:58;9.40;;;2.00;;
20511;SDS011;10414;52.074;5.126;2023-05-17T13:44:25;10.68;;;2.65;;
20511;SDS011;10414;52.074;5.126;2023-05-17T13:46:52;8.30;;;1.67;;
20511;SDS011;10414;52.074;5.126;2023-05-17T13:49:19;8.25;;;1.60;;
20511;SDS011;10414;52.074;5.126;2023-05-17T13:51:46;6.63;;;2.13;;
20511;SDS011;10414;52.074;5.126;2023-05-17T13:54:14;9.98;;;1.80;;
20511;SDS011;10414;52.074;5.126;2023-05-17T13:56:44;6.28;;;1.85;;
20511;SDS011;10414;52.074;5.126;2023-05-17T13:59:10;8.65;;;2.15;;
20511;SDS011;10414;52.074;5.126;2023-05-17T14:01:39;10.50;;;2.05;;
20511;SDS011;10414;52.074;5.126;2023-05-17T14:04:06;9.80;;;1.75;;
20511;SDS011;10414;52.074;5.126;2023-05-17T14:06:33;9.95;;;1.80;;
20511;SDS011;10414;52.074;5.126;2023-05-17T14:08:59;7.57;;;2.05;;
20511;SDS011;10414;52.074;5.126;2023-05-17T14:11:30;13.88;;;1.88;;
20511;SDS011;10414;52.074;5.126;2023-05-17T14:13:56;7.82;;;1.88;;
20511;SDS011;10414;52.074;5.126;2023-05-17T14:16:25;8.75;;;1.55;;
20511;SDS011;10414;52.074;5.126;2023-05-17T14:18:52;11.13;;;1.92;;
20511;SDS011;10414;52.074;5.126;2023-05-17T14:21:18;8.05;;;1.33;;
20511;SDS011;10414;52.074;5.126;2023-05-17T14:23:45;10.50;;;1.98;;
20511;SDS011;10414;52.074;5.126;2023-05-17T14:26:18;9.40;;;1.85;;
20511;SDS011;10414;52.074;5.126;2023-05-17T14:28:47;9.52;;;1.50;;
20511;SDS011;10414;52.074;5.126;2023-05-17T14:31:13;8.00;;;1.85;;
20511;SDS011;10414;52.074;5.126;2023-05-17T14:33:40;7.60;;;1.70;;
20511;SDS011;10414;52.074;5.126;2023-05-17T14:36:08;7.47;;;1.77;;
20511;SDS011;10414;52.074;5.126;2023-05-17T14:38:35;10.25;;;1.80;;
20511;SDS011;10414;52.074;5.126;2023-05-17T14:41:07;7.15;;;1.80;;
20511;SDS011;10414;52.074;5.126;2023-05-17T14:43:34;10.20;;;1.55;;
20511;SDS011;10414;52.074;5.126;2023-05-17T14:46:02;9.88;;;1.90;;
20511;SDS011;10414;52.074;5.126;2023-05-17T14:48:32;11.05;;;2.13;;
20511;SDS011;10414;52.074;5.126;2023-05-17T14:51:02;11.95;;;1.90;;
20511;SDS011;10414;52.074;5.126;2023-05-17T14:53:29;6.18;;;1.70;;
20511;SDS011;10414;52.074;5.126;2023-05-17T14:55:58;8.93;;;1.85;;
20511;SDS011;10414;52.074;5.126;2023-05-17T14:58:26;7.05;;;1.50;;
20511;SDS011;10414;52.074;5.126;2023-05-17T15:00:53;6.60;;;1.60;;
20511;SDS011;10414;52.074;5.126;2023-05-17T15:03:24;9.00;;;1.52;;